KPPF/PPF METAR and TAF weather

Enter ICAO airport designator
Station Type Date Time Source
KPPF METAR 2022/11/26 08:52 UTC NOAA

KPPF 260852Z AUTO 00000KT 10SM CLR M01/M03 A3014 RMK AO2 SLP209 I3000 T10111028 56020 $


Station Type Date Time Source
KPPF Decoded METAR 2022/11/26 08:52 UTC NOAA

PARSONS TRI-CITY AIRPORT, KS, United States (KPPF) 37-20N 95-30W 274M
Nov 26, 2022 - 03:52 AM EST / 2022.11.26 0852 UTC
Wind: Calm:0
Visibility: 10 mile(s):0
Sky conditions: clear
Temperature: 30.0 F (-1.1 C)
Dew Point: 27.0 F (-2.8 C)
Relative Humidity: 88%
Pressure (altimeter): 30.14 in. Hg (1020 hPa)
Pressure tendency: 0.06 inches (2.0 hPa) lower than three hours ago
ob: KPPF 260852Z AUTO 00000KT 10SM CLR M01/M03 A3014 RMK AO2 SLP209 I3000 T10111028 56020
cycle: 9

Station Type Date Time Source
KPPF TAF UTC NOAA

Error!

Example: see airport list